sensor_id;sensor_type;location;lat;lon;timestamp;temperature;humidity
37232;DHT22;23125;48.156;15.954;2023-04-25T00:01:46;13.80;58.00
37232;DHT22;23125;48.156;15.954;2023-04-25T00:04:12;13.80;58.00
37232;DHT22;23125;48.156;15.954;2023-04-25T00:06:39;13.80;58.00
37232;DHT22;23125;48.156;15.954;2023-04-25T00:09:06;13.70;57.90
37232;DHT22;23125;48.156;15.954;2023-04-25T00:11:36;13.70;58.00
37232;DHT22;23125;48.156;15.954;2023-04-25T00:14:04;13.70;57.90
37232;DHT22;23125;48.156;15.954;2023-04-25T00:16:30;13.70;57.90
37232;DHT22;23125;48.156;15.954;2023-04-25T00:19:00;13.70;57.90
37232;DHT22;23125;48.156;15.954;2023-04-25T00:21:27;13.70;58.00
37232;DHT22;23125;48.156;15.954;2023-04-25T00:23:54;13.70;58.00
37232;DHT22;23125;48.156;15.954;2023-04-25T00:26:20;13.60;57.90
37232;DHT22;23125;48.156;15.954;2023-04-25T00:28:47;13.70;57.90
37232;DHT22;23125;48.156;15.954;2023-04-25T00:31:13;13.60;57.90
37232;DHT22;23125;48.156;15.954;2023-04-25T00:33:39;13.60;57.90
37232;DHT22;23125;48.156;15.954;2023-04-25T00:36:06;13.60;57.90
37232;DHT22;23125;48.156;15.954;2023-04-25T00:38:32;13.60;57.90
37232;DHT22;23125;48.156;15.954;2023-04-25T00:40:58;13.60;57.90
37232;DHT22;23125;48.156;15.954;2023-04-25T00:43:26;13.60;58.00
37232;DHT22;23125;48.156;15.954;2023-04-25T00:45:52;13.60;57.80
37232;DHT22;23125;48.156;15.954;2023-04-25T00:48:19;13.60;57.80
37232;DHT22;23125;48.156;15.954;2023-04-25T00:50:55;13.60;57.80
37232;DHT22;23125;48.156;15.954;2023-04-25T00:53:23;13.60;57.90
37232;DHT22;23125;48.156;15.954;2023-04-25T00:55:50;13.60;58.40
37232;DHT22;23125;48.156;15.954;2023-04-25T00:58:17;13.60;57.90
37232;DHT22;23125;48.156;15.954;2023-04-25T01:00:45;13.50;57.90
37232;DHT22;23125;48.156;15.954;2023-04-25T01:03:13;13.50;57.90
37232;DHT22;23125;48.156;15.954;2023-04-25T01:05:41;13.50;57.90
37232;DHT22;23125;48.156;15.954;2023-04-25T01:08:07;13.50;57.90
37232;DHT22;23125;48.156;15.954;2023-04-25T01:10:33;13.50;57.90
37232;DHT22;23125;48.156;15.954;2023-04-25T01:12:59;13.50;57.80
37232;DHT22;23125;48.156;15.954;2023-04-25T01:15:25;13.50;57.80
37232;DHT22;23125;48.156;15.954;2023-04-25T01:17:51;13.50;57.80
37232;DHT22;23125;48.156;15.954;2023-04-25T01:20:23;13.50;57.80
37232;DHT22;23125;48.156;15.954;2023-04-25T01:22:51;13.50;57.80
37232;DHT22;23125;48.156;15.954;2023-04-25T01:25:19;13.50;57.70
37232;DHT22;23125;48.156;15.954;2023-04-25T01:27:46;13.50;57.70
37232;DHT22;23125;48.156;15.954;2023-04-25T01:30:13;13.50;57.70
37232;DHT22;23125;48.156;15.954;2023-04-25T01:32:40;13.50;57.60
37232;DHT22;23125;48.156;15.954;2023-04-25T01:35:09;13.40;57.60
37232;DHT22;23125;48.156;15.954;2023-04-25T01:37:39;13.40;57.50
37232;DHT22;23125;48.156;15.954;2023-04-25T01:40:06;13.40;57.60
37232;DHT22;23125;48.156;15.954;2023-04-25T01:42:34;13.40;57.60
37232;DHT22;23125;48.156;15.954;2023-04-25T01:45:01;13.40;57.60
37232;DHT22;23125;48.156;15.954;2023-04-25T01:47:27;13.30;57.50
37232;DHT22;23125;48.156;15.954;2023-04-25T01:49:53;13.30;57.60
37232;DHT22;23125;48.156;15.954;2023-04-25T01:52:19;13.30;57.50
37232;DHT22;23125;48.156;15.954;2023-04-25T01:54:45;13.30;57.60
37232;DHT22;23125;48.156;15.954;2023-04-25T01:57:12;13.30;57.70
37232;DHT22;23125;48.156;15.954;2023-04-25T01:59:39;13.30;57.60
37232;DHT22;23125;48.156;15.954;2023-04-25T02:02:05;13.30;57.60
37232;DHT22;23125;48.156;15.954;2023-04-25T02:04:31;13.30;57.60
37232;DHT22;23125;48.156;15.954;2023-04-25T02:06:57;13.30;57.50
37232;DHT22;23125;48.156;15.954;2023-04-25T02:09:24;13.30;57.50
37232;DHT22;23125;48.156;15.954;2023-04-25T02:11:49;13.20;57.40
37232;DHT22;23125;48.156;15.954;2023-04-25T02:14:15;13.20;57.30
37232;DHT22;23125;48.156;15.954;2023-04-25T02:16:41;13.20;57.40
37232;DHT22;23125;48.156;15.954;2023-04-25T02:19:10;13.10;57.40
37232;DHT22;23125;48.156;15.954;2023-04-25T02:21:37;13.10;57.30
37232;DHT22;23125;48.156;15.954;2023-04-25T02:24:03;13.10;57.30
37232;DHT22;23125;48.156;15.954;2023-04-25T02:26:29;13.10;57.30
37232;DHT22;23125;48.156;15.954;2023-04-25T02:28:56;13.10;57.30
37232;DHT22;23125;48.156;15.954;2023-04-25T02:31:23;13.00;57.30
37232;DHT22;23125;48.156;15.954;2023-04-25T02:33:48;13.00;57.30
37232;DHT22;23125;48.156;15.954;2023-04-25T02:36:14;13.00;57.30
37232;DHT22;23125;48.156;15.954;2023-04-25T02:38:40;13.00;57.30
37232;DHT22;23125;48.156;15.954;2023-04-25T02:41:06;12.90;57.30
37232;DHT22;23125;48.156;15.954;2023-04-25T02:43:32;12.90;57.30
37232;DHT22;23125;48.156;15.954;2023-04-25T02:45:58;12.90;57.20
37232;DHT22;23125;48.156;15.954;2023-04-25T02:48:24;12.80;57.70
37232;DHT22;23125;48.156;15.954;2023-04-25T02:50:50;12.90;57.20
37232;DHT22;23125;48.156;15.954;2023-04-25T02:53:16;12.80;57.10
37232;DHT22;23125;48.156;15.954;2023-04-25T02:55:42;12.80;57.20
37232;DHT22;23125;48.156;15.954;2023-04-25T02:58:07;12.70;57.20
37232;DHT22;23125;48.156;15.954;2023-04-25T03:00:33;12.70;57.10
37232;DHT22;23125;48.156;15.954;2023-04-25T03:02:59;12.70;57.20
37232;DHT22;23125;48.156;15.954;2023-04-25T03:05:25;12.70;57.10
37232;DHT22;23125;48.156;15.954;2023-04-25T03:07:51;12.70;57.00
37232;DHT22;23125;48.156;15.954;2023-04-25T03:10:17;12.60;57.10
37232;DHT22;23125;48.156;15.954;2023-04-25T03:12:43;12.60;57.10
37232;DHT22;23125;48.156;15.954;2023-04-25T03:15:09;12.60;57.10
37232;DHT22;23125;48.156;15.954;2023-04-25T03:17:35;12.50;57.10
37232;DHT22;23125;48.156;15.954;2023-04-25T03:20:01;12.50;57.10
37232;DHT22;23125;48.156;15.954;2023-04-25T03:22:29;12.50;57.10
37232;DHT22;23125;48.156;15.954;2023-04-25T03:24:55;12.40;57.00
37232;DHT22;23125;48.156;15.954;2023-04-25T03:27:21;12.40;57.00
37232;DHT22;23125;48.156;15.954;2023-04-25T03:29:47;12.40;57.10
37232;DHT22;23125;48.156;15.954;2023-04-25T03:32:13;12.40;57.10
37232;DHT22;23125;48.156;15.954;2023-04-25T03:34:39;12.40;57.10
37232;DHT22;23125;48.156;15.954;2023-04-25T03:37:05;12.30;57.00
37232;DHT22;23125;48.156;15.954;2023-04-25T03:39:31;12.30;57.00
37232;DHT22;23125;48.156;15.954;2023-04-25T03:41:57;12.30;57.10
37232;DHT22;23125;48.156;15.954;2023-04-25T03:44:23;12.20;57.00
37232;DHT22;23125;48.156;15.954;2023-04-25T03:46:50;12.20;57.10
37232;DHT22;23125;48.156;15.954;2023-04-25T03:49:16;12.20;57.10
37232;DHT22;23125;48.156;15.954;2023-04-25T03:51:42;12.20;57.00
37232;DHT22;23125;48.156;15.954;2023-04-25T03:54:08;12.20;57.10
37232;DHT22;23125;48.156;15.954;2023-04-25T03:56:34;12.10;57.00
37232;DHT22;23125;48.156;15.954;2023-04-25T03:59:00;12.10;57.10
37232;DHT22;23125;48.156;15.954;2023-04-25T04:01:26;12.10;57.40
37232;DHT22;23125;48.156;15.954;2023-04-25T04:03:52;12.10;57.20
37232;DHT22;23125;48.156;15.954;2023-04-25T04:06:18;12.10;57.20
37232;DHT22;23125;48.156;15.954;2023-04-25T04:08:46;12.00;57.10
37232;DHT22;23125;48.156;15.954;2023-04-25T04:11:12;12.00;57.20
37232;DHT22;23125;48.156;15.954;2023-04-25T04:13:41;12.00;57.20
37232;DHT22;23125;48.156;15.954;2023-04-25T04:16:07;12.00;57.20
37232;DHT22;23125;48.156;15.954;2023-04-25T04:18:33;12.00;57.70
37232;DHT22;23125;48.156;15.954;2023-04-25T04:20:59;12.00;57.20
37232;DHT22;23125;48.156;15.954;2023-04-25T04:23:25;12.00;57.20
37232;DHT22;23125;48.156;15.954;2023-04-25T04:25:53;12.00;57.20
37232;DHT22;23125;48.156;15.954;2023-04-25T04:28:20;11.90;57.20
37232;DHT22;23125;48.156;15.954;2023-04-25T04:30:47;11.90;57.20
37232;DHT22;23125;48.156;15.954;2023-04-25T04:33:14;11.90;57.20
37232;DHT22;23125;48.156;15.954;2023-04-25T04:35:45;11.90;57.20
37232;DHT22;23125;48.156;15.954;2023-04-25T04:38:13;11.90;57.30
37232;DHT22;23125;48.156;15.954;2023-04-25T04:40:41;11.90;57.50
37232;DHT22;23125;48.156;15.954;2023-04-25T04:43:10;11.90;57.30
37232;DHT22;23125;48.156;15.954;2023-04-25T04:45:37;11.90;57.40
37232;DHT22;23125;48.156;15.954;2023-04-25T04:48:06;12.00;57.40
37232;DHT22;23125;48.156;15.954;2023-04-25T04:50:32;11.90;57.20
37232;DHT22;23125;48.156;15.954;2023-04-25T04:52:58;12.00;57.30
37232;DHT22;23125;48.156;15.954;2023-04-25T04:55:24;11.90;57.30
37232;DHT22;23125;48.156;15.954;2023-04-25T04:57:50;11.80;57.30
37232;DHT22;23125;48.156;15.954;2023-04-25T05:00:17;11.80;57.40
37232;DHT22;23125;48.156;15.954;2023-04-25T05:02:43;11.90;57.60
37232;DHT22;23125;48.156;15.954;2023-04-25T05:05:09;11.90;57.80
37232;DHT22;23125;48.156;15.954;2023-04-25T05:07:36;11.90;57.80
37232;DHT22;23125;48.156;15.954;2023-04-25T05:10:02;12.00;57.80
37232;DHT22;23125;48.156;15.954;2023-04-25T05:12:28;12.00;57.90
37232;DHT22;23125;48.156;15.954;2023-04-25T05:14:56;12.00;57.90
37232;DHT22;23125;48.156;15.954;2023-04-25T05:17:21;12.00;58.10
37232;DHT22;23125;48.156;15.954;2023-04-25T05:19:47;12.10;58.10
37232;DHT22;23125;48.156;15.954;2023-04-25T05:22:13;12.20;58.30
37232;DHT22;23125;48.156;15.954;2023-04-25T05:24:39;12.20;58.30
37232;DHT22;23125;48.156;15.954;2023-04-25T05:27:05;12.30;58.30
37232;DHT22;23125;48.156;15.954;2023-04-25T05:29:31;12.40;58.50
37232;DHT22;23125;48.156;15.954;2023-04-25T05:31:57;12.60;59.80
37232;DHT22;23125;48.156;15.954;2023-04-25T05:34:23;13.10;61.20
37232;DHT22;23125;48.156;15.954;2023-04-25T05:36:48;13.60;62.00
37232;DHT22;23125;48.156;15.954;2023-04-25T05:39:16;14.00;61.30
37232;DHT22;23125;48.156;15.954;2023-04-25T05:41:43;14.40;60.40
37232;DHT22;23125;48.156;15.954;2023-04-25T05:44:09;14.70;60.20
37232;DHT22;23125;48.156;15.954;2023-04-25T05:46:35;15.00;59.70
37232;DHT22;23125;48.156;15.954;2023-04-25T05:49:01;15.30;59.50
37232;DHT22;23125;48.156;15.954;2023-04-25T05:51:28;15.80;61.10
37232;DHT22;23125;48.156;15.954;2023-04-25T05:53:54;16.60;61.20
37232;DHT22;23125;48.156;15.954;2023-04-25T05:56:20;17.30;60.80
37232;DHT22;23125;48.156;15.954;2023-04-25T05:58:46;18.00;59.90
37232;DHT22;23125;48.156;15.954;2023-04-25T06:01:12;18.70;59.00
37232;DHT22;23125;48.156;15.954;2023-04-25T06:03:38;19.30;58.10
37232;DHT22;23125;48.156;15.954;2023-04-25T06:06:04;19.90;57.00
37232;DHT22;23125;48.156;15.954;2023-04-25T06:08:31;20.40;56.10
37232;DHT22;23125;48.156;15.954;2023-04-25T06:10:57;21.00;55.50
37232;DHT22;23125;48.156;15.954;2023-04-25T06:13:23;21.50;54.50
37232;DHT22;23125;48.156;15.954;2023-04-25T06:15:49;21.90;53.50
37232;DHT22;23125;48.156;15.954;2023-04-25T06:18:15;22.30;52.60
37232;DHT22;23125;48.156;15.954;2023-04-25T06:20:40;22.80;51.70
37232;DHT22;23125;48.156;15.954;2023-04-25T06:23:06;23.10;50.70
37232;DHT22;23125;48.156;15.954;2023-04-25T06:25:32;23.50;50.40
37232;DHT22;23125;48.156;15.954;2023-04-25T06:27:58;23.90;49.60
37232;DHT22;23125;48.156;15.954;2023-04-25T06:30:24;23.70;45.90
37232;DHT22;23125;48.156;15.954;2023-04-25T06:32:52;23.30;46.20
37232;DHT22;23125;48.156;15.954;2023-04-25T06:35:19;23.60;47.50
37232;DHT22;23125;48.156;15.954;2023-04-25T06:37:45;23.90;47.10
37232;DHT22;23125;48.156;15.954;2023-04-25T06:40:11;24.20;46.90
37232;DHT22;23125;48.156;15.954;2023-04-25T06:42:37;24.50;46.40
37232;DHT22;23125;48.156;15.954;2023-04-25T06:45:03;24.90;46.10
37232;DHT22;23125;48.156;15.954;2023-04-25T06:47:29;25.20;45.20
37232;DHT22;23125;48.156;15.954;2023-04-25T06:49:56;25.50;44.70
37232;DHT22;23125;48.156;15.954;2023-04-25T06:52:22;25.90;44.40
37232;DHT22;23125;48.156;15.954;2023-04-25T06:54:47;26.30;43.70
37232;DHT22;23125;48.156;15.954;2023-04-25T06:57:13;26.50;42.60
37232;DHT22;23125;48.156;15.954;2023-04-25T06:59:39;26.60;41.60
37232;DHT22;23125;48.156;15.954;2023-04-25T07:02:05;26.80;41.10
37232;DHT22;23125;48.156;15.954;2023-04-25T07:04:31;27.00;40.50
37232;DHT22;23125;48.156;15.954;2023-04-25T07:06:57;27.10;39.90
37232;DHT22;23125;48.156;15.954;2023-04-25T07:09:23;27.40;39.50
37232;DHT22;23125;48.156;15.954;2023-04-25T07:11:49;27.40;39.00
37232;DHT22;23125;48.156;15.954;2023-04-25T07:14:15;27.60;38.70
37232;DHT22;23125;48.156;15.954;2023-04-25T07:16:41;27.80;38.20
37232;DHT22;23125;48.156;15.954;2023-04-25T07:19:07;28.10;37.80
37232;DHT22;23125;48.156;15.954;2023-04-25T07:21:33;28.10;36.80
37232;DHT22;23125;48.156;15.954;2023-04-25T07:23:59;28.20;36.70
37232;DHT22;23125;48.156;15.954;2023-04-25T07:26:25;28.50;36.50
37232;DHT22;23125;48.156;15.954;2023-04-25T07:28:51;28.50;35.40
37232;DHT22;23125;48.156;15.954;2023-04-25T07:31:17;28.60;35.20
37232;DHT22;23125;48.156;15.954;2023-04-25T07:33:46;28.70;34.60
37232;DHT22;23125;48.156;15.954;2023-04-25T07:36:12;28.80;34.30
37232;DHT22;23125;48.156;15.954;2023-04-25T07:38:41;28.80;33.30
37232;DHT22;23125;48.156;15.954;2023-04-25T07:41:10;28.70;32.70
37232;DHT22;23125;48.156;15.954;2023-04-25T07:43:36;28.60;32.60
37232;DHT22;23125;48.156;15.954;2023-04-25T07:46:01;28.60;32.60
37232;DHT22;23125;48.156;15.954;2023-04-25T07:48:28;28.60;32.50
37232;DHT22;23125;48.156;15.954;2023-04-25T07:50:54;28.60;32.20
37232;DHT22;23125;48.156;15.954;2023-04-25T07:53:20;28.70;31.90
37232;DHT22;23125;48.156;15.954;2023-04-25T07:55:45;28.80;32.00
37232;DHT22;23125;48.156;15.954;2023-04-25T07:58:11;28.90;31.60
37232;DHT22;23125;48.156;15.954;2023-04-25T08:00:37;28.80;31.00
37232;DHT22;23125;48.156;15.954;2023-04-25T08:03:03;28.90;31.20
37232;DHT22;23125;48.156;15.954;2023-04-25T08:05:29;28.90;30.20
37232;DHT22;23125;48.156;15.954;2023-04-25T08:07:55;28.60;29.30
37232;DHT22;23125;48.156;15.954;2023-04-25T08:10:22;28.20;28.90
37232;DHT22;23125;48.156;15.954;2023-04-25T08:12:49;27.70;28.60
37232;DHT22;23125;48.156;15.954;2023-04-25T08:15:15;27.20;28.50
37232;DHT22;23125;48.156;15.954;2023-04-25T08:17:41;26.70;29.00
37232;DHT22;23125;48.156;15.954;2023-04-25T08:20:07;26.50;30.50
37232;DHT22;23125;48.156;15.954;2023-04-25T08:22:34;26.50;30.80
37232;DHT22;23125;48.156;15.954;2023-04-25T08:25:00;26.70;31.50
37232;DHT22;23125;48.156;15.954;2023-04-25T08:27:26;27.00;31.80
37232;DHT22;23125;48.156;15.954;2023-04-25T08:29:52;27.20;31.30
37232;DHT22;23125;48.156;15.954;2023-04-25T08:32:18;27.20;30.70
37232;DHT22;23125;48.156;15.954;2023-04-25T08:34:46;27.30;30.60
37232;DHT22;23125;48.156;15.954;2023-04-25T08:37:12;27.40;30.50
37232;DHT22;23125;48.156;15.954;2023-04-25T08:39:38;27.30;29.60
37232;DHT22;23125;48.156;15.954;2023-04-25T08:42:06;27.00;29.10
37232;DHT22;23125;48.156;15.954;2023-04-25T08:44:36;26.70;29.10
37232;DHT22;23125;48.156;15.954;2023-04-25T08:47:06;26.30;28.90
37232;DHT22;23125;48.156;15.954;2023-04-25T08:49:33;25.90;29.10
37232;DHT22;23125;48.156;15.954;2023-04-25T08:52:01;25.60;29.20
37232;DHT22;23125;48.156;15.954;2023-04-25T08:54:28;25.40;29.60
37232;DHT22;23125;48.156;15.954;2023-04-25T08:56:55;25.30;30.10
37232;DHT22;23125;48.156;15.954;2023-04-25T08:59:23;25.10;30.40
37232;DHT22;23125;48.156;15.954;2023-04-25T09:01:50;25.10;31.20
37232;DHT22;23125;48.156;15.954;2023-04-25T09:04:18;25.00;31.00
37232;DHT22;23125;48.156;15.954;2023-04-25T09:06:44;25.10;31.50
37232;DHT22;23125;48.156;15.954;2023-04-25T09:09:11;25.20;32.10
37232;DHT22;23125;48.156;15.954;2023-04-25T09:11:37;25.40;32.30
37232;DHT22;23125;48.156;15.954;2023-04-25T09:14:17;25.60;31.90
37232;DHT22;23125;48.156;15.954;2023-04-25T09:21:53;26.30;31.30
37232;DHT22;23125;48.156;15.954;2023-04-25T09:24:43;26.20;30.70
37232;DHT22;23125;48.156;15.954;2023-04-25T09:27:13;26.10;30.30
37232;DHT22;23125;48.156;15.954;2023-04-25T09:29:43;25.90;29.90
37232;DHT22;23125;48.156;15.954;2023-04-25T09:34:43;25.70;31.60
37232;DHT22;23125;48.156;15.954;2023-04-25T09:37:10;25.80;31.20
37232;DHT22;23125;48.156;15.954;2023-04-25T09:39:39;25.60;30.50
37232;DHT22;23125;48.156;15.954;2023-04-25T09:42:06;25.60;31.10
37232;DHT22;23125;48.156;15.954;2023-04-25T09:44:32;25.70;31.70
37232;DHT22;23125;48.156;15.954;2023-04-25T09:46:58;25.80;31.50
37232;DHT22;23125;48.156;15.954;2023-04-25T09:49:25;25.80;30.60
37232;DHT22;23125;48.156;15.954;2023-04-25T09:51:59;25.50;30.00
37232;DHT22;23125;48.156;15.954;2023-04-25T09:54:26;25.30;29.90
37232;DHT22;23125;48.156;15.954;2023-04-25T09:56:53;25.20;30.50
37232;DHT22;23125;48.156;15.954;2023-04-25T09:59:20;25.30;31.70
37232;DHT22;23125;48.156;15.954;2023-04-25T10:01:50;25.50;32.10
37232;DHT22;23125;48.156;15.954;2023-04-25T10:04:25;25.80;32.00
37232;DHT22;23125;48.156;15.954;2023-04-25T10:06:53;26.00;31.60
37232;DHT22;23125;48.156;15.954;2023-04-25T10:09:21;26.10;30.70
37232;DHT22;23125;48.156;15.954;2023-04-25T10:11:50;26.20;31.10
37232;DHT22;23125;48.156;15.954;2023-04-25T10:14:18;26.30;31.00
37232;DHT22;23125;48.156;15.954;2023-04-25T10:16:45;26.30;30.40
37232;DHT22;23125;48.156;15.954;2023-04-25T10:19:13;26.20;29.90
37232;DHT22;23125;48.156;15.954;2023-04-25T10:21:58;26.10;30.20
37232;DHT22;23125;48.156;15.954;2023-04-25T10:24:28;26.00;30.00
37232;DHT22;23125;48.156;15.954;2023-04-25T10:26:54;25.90;30.00
37232;DHT22;23125;48.156;15.954;2023-04-25T10:29:23;25.70;29.90
37232;DHT22;23125;48.156;15.954;2023-04-25T10:31:49;25.60;30.30
37232;DHT22;23125;48.156;15.954;2023-04-25T10:34:16;25.60;30.40
37232;DHT22;23125;48.156;15.954;2023-04-25T10:36:44;25.40;30.10
37232;DHT22;23125;48.156;15.954;2023-04-25T10:39:26;25.30;30.00
37232;DHT22;23125;48.156;15.954;2023-04-25T10:41:56;25.00;30.00
37232;DHT22;23125;48.156;15.954;2023-04-25T10:44:25;24.90;30.40
37232;DHT22;23125;48.156;15.954;2023-04-25T10:46:52;24.80;30.60
37232;DHT22;23125;48.156;15.954;2023-04-25T10:49:41;24.70;30.60
37232;DHT22;23125;48.156;15.954;2023-04-25T10:52:26;24.60;30.80
37232;DHT22;23125;48.156;15.954;2023-04-25T10:54:55;24.40;30.70
37232;DHT22;23125;48.156;15.954;2023-04-25T10:57:31;24.30;30.70
37232;DHT22;23125;48.156;15.954;2023-04-25T11:02:58;23.80;30.80
37232;DHT22;23125;48.156;15.954;2023-04-25T11:05:33;23.60;30.90
37232;DHT22;23125;48.156;15.954;2023-04-25T11:08:00;23.40;31.20
37232;DHT22;23125;48.156;15.954;2023-04-25T11:10:31;23.10;31.20
37232;DHT22;23125;48.156;15.954;2023-04-25T11:12:58;22.90;31.30
37232;DHT22;23125;48.156;15.954;2023-04-25T11:15:26;22.70;31.70
37232;DHT22;23125;48.156;15.954;2023-04-25T11:17:52;22.50;32.20
37232;DHT22;23125;48.156;15.954;2023-04-25T11:20:19;22.30;32.20
37232;DHT22;23125;48.156;15.954;2023-04-25T11:22:46;22.20;32.70
37232;DHT22;23125;48.156;15.954;2023-04-25T11:25:15;22.00;33.10
37232;DHT22;23125;48.156;15.954;2023-04-25T11:27:53;21.90;33.40
37232;DHT22;23125;48.156;15.954;2023-04-25T11:30:21;21.90;33.50
37232;DHT22;23125;48.156;15.954;2023-04-25T11:32:47;21.80;33.40
37232;DHT22;23125;48.156;15.954;2023-04-25T11:35:13;21.70;33.50
37232;DHT22;23125;48.156;15.954;2023-04-25T11:37:40;21.50;33.30
37232;DHT22;23125;48.156;15.954;2023-04-25T11:40:07;21.30;33.20
37232;DHT22;23125;48.156;15.954;2023-04-25T11:42:39;21.20;33.80
37232;DHT22;23125;48.156;15.954;2023-04-25T11:45:06;21.00;34.30
37232;DHT22;23125;48.156;15.954;2023-04-25T11:47:33;21.00;34.70
37232;DHT22;23125;48.156;15.954;2023-04-25T11:50:00;21.00;34.90
37232;DHT22;23125;48.156;15.954;2023-04-25T11:52:40;21.00;35.20
37232;DHT22;23125;48.156;15.954;2023-04-25T11:55:08;21.00;35.30
37232;DHT22;23125;48.156;15.954;2023-04-25T11:57:34;20.90;35.10
37232;DHT22;23125;48.156;15.954;2023-04-25T12:00:20;20.80;35.30
37232;DHT22;23125;48.156;15.954;2023-04-25T12:02:52;20.80;35.50
37232;DHT22;23125;48.156;15.954;2023-04-25T12:05:19;20.80;35.50
37232;DHT22;23125;48.156;15.954;2023-04-25T12:07:46;20.60;35.40
37232;DHT22;23125;48.156;15.954;2023-04-25T12:10:18;20.40;35.30
37232;DHT22;23125;48.156;15.954;2023-04-25T12:12:47;20.20;36.20
37232;DHT22;23125;48.156;15.954;2023-04-25T12:15:24;20.00;35.80
37232;DHT22;23125;48.156;15.954;2023-04-25T12:17:52;19.80;36.50
37232;DHT22;23125;48.156;15.954;2023-04-25T12:20:21;19.70;37.00
37232;DHT22;23125;48.156;15.954;2023-04-25T12:22:50;19.60;37.60
37232;DHT22;23125;48.156;15.954;2023-04-25T12:28:13;19.50;38.80
37232;DHT22;23125;48.156;15.954;2023-04-25T12:31:01;19.50;39.00
37232;DHT22;23125;48.156;15.954;2023-04-25T12:33:38;19.60;39.60
37232;DHT22;23125;48.156;15.954;2023-04-25T12:36:06;19.70;39.90
37232;DHT22;23125;48.156;15.954;2023-04-25T12:38:38;19.80;40.30
37232;DHT22;23125;48.156;15.954;2023-04-25T12:41:06;19.90;40.50
37232;DHT22;23125;48.156;15.954;2023-04-25T12:43:32;20.00;40.20
37232;DHT22;23125;48.156;15.954;2023-04-25T12:45:59;20.10;40.00
37232;DHT22;23125;48.156;15.954;2023-04-25T12:48:25;20.10;40.00
37232;DHT22;23125;48.156;15.954;2023-04-25T12:50:51;20.10;40.00
37232;DHT22;23125;48.156;15.954;2023-04-25T12:53:20;20.10;39.70
37232;DHT22;23125;48.156;15.954;2023-04-25T12:55:49;20.00;39.70
37232;DHT22;23125;48.156;15.954;2023-04-25T12:58:18;20.00;39.70
37232;DHT22;23125;48.156;15.954;2023-04-25T13:00:45;19.90;39.70
37232;DHT22;23125;48.156;15.954;2023-04-25T13:03:11;19.90;40.00
37232;DHT22;23125;48.156;15.954;2023-04-25T13:05:38;19.80;40.00
37232;DHT22;23125;48.156;15.954;2023-04-25T13:08:04;19.70;39.90
37232;DHT22;23125;48.156;15.954;2023-04-25T13:10:30;19.60;39.70
37232;DHT22;23125;48.156;15.954;2023-04-25T13:12:56;19.50;39.50
37232;DHT22;23125;48.156;15.954;2023-04-25T13:15:22;19.30;39.20
37232;DHT22;23125;48.156;15.954;2023-04-25T13:17:48;19.20;39.40
37232;DHT22;23125;48.156;15.954;2023-04-25T13:20:14;19.10;39.70
37232;DHT22;23125;48.156;15.954;2023-04-25T13:22:42;18.90;39.70
37232;DHT22;23125;48.156;15.954;2023-04-25T13:25:08;18.80;40.10
37232;DHT22;23125;48.156;15.954;2023-04-25T13:27:36;18.60;40.30
37232;DHT22;23125;48.156;15.954;2023-04-25T13:30:03;18.50;40.20
37232;DHT22;23125;48.156;15.954;2023-04-25T13:32:34;18.30;40.30
37232;DHT22;23125;48.156;15.954;2023-04-25T13:35:02;18.10;40.30
37232;DHT22;23125;48.156;15.954;2023-04-25T13:37:28;18.00;40.50
37232;DHT22;23125;48.156;15.954;2023-04-25T13:39:56;17.90;41.00
37232;DHT22;23125;48.156;15.954;2023-04-25T13:42:23;17.90;41.50
37232;DHT22;23125;48.156;15.954;2023-04-25T13:44:49;17.80;41.80
37232;DHT22;23125;48.156;15.954;2023-04-25T13:47:15;17.80;41.80
37232;DHT22;23125;48.156;15.954;2023-04-25T13:49:41;17.80;42.00
37232;DHT22;23125;48.156;15.954;2023-04-25T13:52:06;17.80;42.10
37232;DHT22;23125;48.156;15.954;2023-04-25T13:54:33;17.80;42.20
37232;DHT22;23125;48.156;15.954;2023-04-25T13:56:59;17.70;42.20
37232;DHT22;23125;48.156;15.954;2023-04-25T13:59:25;17.70;42.10
37232;DHT22;23125;48.156;15.954;2023-04-25T14:01:52;17.60;42.20
37232;DHT22;23125;48.156;15.954;2023-04-25T14:04:17;17.60;42.30
37232;DHT22;23125;48.156;15.954;2023-04-25T14:06:44;17.60;42.30
37232;DHT22;23125;48.156;15.954;2023-04-25T14:09:10;17.60;42.50
37232;DHT22;23125;48.156;15.954;2023-04-25T14:11:36;17.60;42.80
37232;DHT22;23125;48.156;15.954;2023-04-25T14:14:02;17.60;42.80
37232;DHT22;23125;48.156;15.954;2023-04-25T14:16:29;17.50;42.70
37232;DHT22;23125;48.156;15.954;2023-04-25T14:18:56;17.50;42.90
37232;DHT22;23125;48.156;15.954;2023-04-25T14:21:22;17.50;43.00
37232;DHT22;23125;48.156;15.954;2023-04-25T14:23:48;17.50;43.10
37232;DHT22;23125;48.156;15.954;2023-04-25T14:26:13;17.50;43.10
37232;DHT22;23125;48.156;15.954;2023-04-25T14:28:40;17.50;43.20
37232;DHT22;23125;48.156;15.954;2023-04-25T14:31:06;17.60;43.50
37232;DHT22;23125;48.156;15.954;2023-04-25T14:33:32;17.60;43.60
37232;DHT22;23125;48.156;15.954;2023-04-25T14:35:58;17.60;43.60
37232;DHT22;23125;48.156;15.954;2023-04-25T14:38:24;17.60;43.60
37232;DHT22;23125;48.156;15.954;2023-04-25T14:40:51;17.60;43.50
37232;DHT22;23125;48.156;15.954;2023-04-25T14:43:19;17.60;43.80
37232;DHT22;23125;48.156;15.954;2023-04-25T14:45:45;17.70;43.90
37232;DHT22;23125;48.156;15.954;2023-04-25T14:48:11;17.70;43.90
37232;DHT22;23125;48.156;15.954;2023-04-25T14:50:37;17.70;44.10
37232;DHT22;23125;48.156;15.954;2023-04-25T14:53:04;17.60;43.90
37232;DHT22;23125;48.156;15.954;2023-04-25T14:55:30;17.60;44.00
37232;DHT22;23125;48.156;15.954;2023-04-25T14:57:56;17.50;44.00
37232;DHT22;23125;48.156;15.954;2023-04-25T15:00:22;17.50;44.20
37232;DHT22;23125;48.156;15.954;2023-04-25T15:02:49;17.40;44.00
37232;DHT22;23125;48.156;15.954;2023-04-25T15:05:15;17.30;44.10
37232;DHT22;23125;48.156;15.954;2023-04-25T15:07:41;17.30;44.30
37232;DHT22;23125;48.156;15.954;2023-04-25T15:10:08;17.10;44.30
37232;DHT22;23125;48.156;15.954;2023-04-25T15:12:45;17.10;44.60
37232;DHT22;23125;48.156;15.954;2023-04-25T15:15:11;17.10;44.90
37232;DHT22;23125;48.156;15.954;2023-04-25T15:17:44;17.00;44.90
37232;DHT22;23125;48.156;15.954;2023-04-25T15:20:12;17.00;45.00
37232;DHT22;23125;48.156;15.954;2023-04-25T15:22:40;16.90;45.00
37232;DHT22;23125;48.156;15.954;2023-04-25T15:25:07;16.80;45.10
37232;DHT22;23125;48.156;15.954;2023-04-25T15:27:39;16.80;45.20
37232;DHT22;23125;48.156;15.954;2023-04-25T15:30:08;16.80;45.70